createdAt,value
2022-11-22T15:57:52.135Z,18.20
2022-11-22T16:00:25.305Z,18.20
2022-11-22T16:02:56.249Z,18.30
2022-11-22T16:06:06.352Z,18.40
2022-11-22T16:08:17.901Z,18.50
2022-11-22T16:10:50.901Z,18.50
2022-11-22T16:13:35.042Z,18.50
2022-11-22T16:16:19.729Z,18.50
2022-11-22T16:18:48.774Z,18.50
2022-11-22T16:21:28.828Z,18.50
2022-11-22T16:24:12.576Z,18.60
2022-11-22T16:26:41.407Z,18.60
2022-11-22T16:29:26.151Z,18.60
2022-11-22T16:32:01.205Z,18.70
2022-11-22T16:34:29.098Z,18.70
2022-11-22T16:36:57.064Z,18.70
2022-11-22T16:39:24.920Z,18.80
2022-11-22T16:41:53.007Z,18.80
2022-11-22T16:44:22.934Z,18.80
2022-11-22T16:46:50.824Z,18.70
2022-11-22T16:49:20.378Z,18.60
2022-11-22T16:51:49.103Z,18.60
2022-11-22T16:54:19.047Z,18.60
2022-11-22T16:56:47.522Z,18.50
2022-11-22T16:59:15.451Z,18.60
2022-11-22T17:01:45.306Z,18.60
2022-11-22T17:04:25.238Z,18.60
2022-11-22T17:06:53.299Z,18.70
2022-11-22T17:09:21.249Z,18.70
2022-11-22T17:11:49.281Z,18.80
2022-11-22T17:14:18.097Z,18.80
2022-11-22T17:16:47.865Z,18.80
2022-11-22T17:19:37.882Z,18.70
2022-11-22T17:22:06.798Z,18.70
2022-11-22T17:24:35.401Z,18.70
2022-11-22T17:27:03.285Z,18.70
2022-11-22T17:32:20.645Z,18.80
2022-11-22T17:34:48.545Z,18.80
2022-11-22T17:37:16.570Z,18.80
2022-11-22T17:39:44.468Z,18.70
2022-11-22T17:42:13.214Z,18.80
2022-11-22T17:44:41.151Z,18.70
2022-11-22T17:47:09.040Z,18.70
2022-11-22T17:49:38.274Z,18.70
2022-11-22T17:52:06.137Z,18.70
2022-11-22T17:54:34.025Z,18.60
2022-11-22T17:57:01.867Z,18.60
2022-11-22T17:59:30.051Z,18.70
2022-11-22T18:01:58.554Z,18.70
2022-11-22T18:04:26.429Z,18.70
2022-11-22T18:06:55.648Z,18.70
2022-11-22T18:09:23.483Z,18.70
2022-11-22T18:11:51.413Z,18.70
2022-11-22T18:14:19.291Z,18.70
2022-11-22T18:16:47.169Z,18.70
2022-11-22T18:19:15.091Z,18.60
2022-11-22T18:21:43.018Z,18.70
2022-11-22T18:24:12.524Z,18.70
2022-11-22T18:26:41.607Z,18.70
2022-11-22T18:31:59.170Z,18.70
2022-11-22T18:34:27.386Z,18.70
2022-11-22T18:37:01.449Z,18.70
2022-11-22T18:39:33.581Z,18.70
2022-11-22T18:42:01.892Z,18.70
2022-11-22T18:44:29.807Z,18.80
2022-11-22T18:46:57.791Z,18.80
2022-11-22T18:49:25.857Z,18.80
2022-11-22T18:51:53.827Z,18.70
2022-11-22T18:54:22.812Z,18.70
2022-11-22T18:56:52.696Z,18.70
2022-11-22T18:59:20.607Z,18.80
2022-11-22T19:01:48.524Z,18.90
2022-11-22T19:04:17.170Z,18.90
2022-11-22T19:06:45.884Z,18.80
2022-11-22T19:09:14.093Z,18.70
2022-11-22T19:11:42.156Z,18.70
2022-11-22T19:14:11.430Z,18.70
2022-11-22T19:16:39.450Z,18.70
2022-11-22T19:19:08.347Z,18.80
2022-11-22T19:21:36.326Z,18.80
2022-11-22T19:24:04.589Z,18.80
2022-11-22T19:26:32.494Z,18.90
2022-11-22T19:29:02.568Z,18.90
2022-11-22T19:31:32.252Z,19.00
2022-11-22T19:34:00.996Z,19.00
2022-11-22T19:36:34.199Z,19.00
2022-11-22T19:39:04.345Z,19.00
2022-11-22T19:41:32.457Z,19.00
2022-11-22T19:44:00.601Z,18.90
2022-11-22T19:46:28.916Z,18.90
2022-11-22T19:48:59.701Z,19.00
2022-11-22T19:51:29.482Z,18.90
2022-11-22T19:54:00.447Z,18.90
2022-11-22T19:56:30.619Z,18.90
2022-11-22T19:58:59.857Z,18.90
2022-11-22T20:01:29.864Z,18.90
2022-11-22T20:04:01.719Z,18.80
2022-11-22T20:06:30.360Z,18.90
2022-11-22T20:09:02.106Z,18.90
2022-11-22T20:11:30.024Z,18.80
2022-11-22T20:13:57.951Z,18.80
2022-11-22T20:16:27.760Z,18.80
2022-11-22T20:18:56.117Z,18.80
2022-11-22T20:21:26.749Z,18.80
2022-11-22T20:23:55.131Z,18.90
2022-11-22T20:26:24.202Z,18.80
2022-11-22T20:28:56.215Z,18.80
2022-11-22T20:31:25.199Z,18.80
2022-11-22T20:33:54.794Z,18.80
2022-11-22T20:36:26.051Z,18.80
2022-11-22T20:38:54.805Z,18.80
2022-11-22T20:41:24.676Z,18.80
2022-11-22T20:43:52.956Z,18.80
2022-11-22T20:46:22.271Z,18.80
2022-11-22T20:48:51.985Z,18.80
2022-11-22T20:51:21.609Z,18.80
2022-11-22T20:53:51.523Z,18.80
2022-11-22T20:56:19.907Z,18.90
2022-11-22T20:58:48.075Z,18.90
2022-11-22T21:01:17.514Z,18.90
2022-11-22T21:03:46.086Z,18.90
2022-11-22T21:06:15.246Z,19.00
2022-11-22T21:08:44.555Z,19.00
2022-11-22T21:11:15.809Z,19.00
2022-11-22T21:13:44.675Z,19.10
2022-11-22T21:16:23.481Z,19.10
2022-11-22T21:18:53.544Z,19.10
2022-11-22T21:21:23.825Z,19.10
2022-11-22T21:23:52.767Z,19.10
2022-11-22T21:26:22.976Z,19.00
2022-11-22T21:28:51.134Z,18.90
2022-11-22T21:31:19.776Z,18.90
2022-11-22T21:33:48.030Z,18.80
2022-11-22T21:36:16.697Z,18.90
2022-11-22T21:38:44.625Z,18.90
2022-11-22T21:41:38.715Z,18.90
2022-11-22T21:44:06.094Z,19.00
2022-11-22T21:46:34.024Z,18.90
2022-11-22T21:49:01.986Z,18.90
2022-11-22T21:51:29.885Z,19.00
2022-11-22T21:53:58.784Z,18.90
2022-11-22T21:56:26.960Z,18.90
2022-11-22T21:58:55.106Z,19.00
2022-11-22T22:01:24.817Z,19.00
2022-11-22T22:03:53.513Z,18.90
2022-11-22T22:06:21.848Z,19.00
2022-11-22T22:08:49.749Z,18.90
2022-11-22T22:11:17.718Z,18.90
2022-11-22T22:13:45.745Z,18.90
2022-11-22T22:16:18.520Z,18.90
2022-11-22T22:18:48.075Z,19.00
2022-11-22T22:21:17.303Z,18.90
2022-11-22T22:23:46.288Z,18.90
2022-11-22T22:26:15.648Z,18.90
2022-11-22T22:28:44.922Z,18.90
2022-11-22T22:31:14.542Z,18.90
2022-11-22T22:33:42.927Z,19.10
2022-11-22T22:36:12.636Z,18.90
2022-11-22T22:38:40.650Z,18.90
2022-11-22T22:41:12.189Z,18.90
2022-11-22T22:43:42.785Z,18.90
2022-11-22T22:46:13.667Z,18.90
2022-11-22T22:48:42.234Z,18.90
2022-11-22T22:51:15.005Z,18.90
2022-11-22T22:53:43.746Z,18.90
2022-11-22T22:56:12.865Z,18.90
2022-11-22T22:58:41.038Z,18.90
2022-11-22T23:01:10.223Z,19.00
2022-11-22T23:04:06.150Z,19.30
2022-11-22T23:06:37.462Z,19.00
2022-11-22T23:09:06.574Z,19.10
2022-11-22T23:11:52.693Z,19.10
2022-11-22T23:14:22.704Z,19.10
2022-11-22T23:16:55.931Z,19.20
2022-11-22T23:19:26.541Z,19.20
2022-11-22T23:21:56.111Z,19.20
2022-11-22T23:24:24.505Z,19.20
2022-11-22T23:26:52.449Z,19.20
2022-11-22T23:29:20.317Z,19.20
2022-11-22T23:31:48.223Z,19.20
2022-11-22T23:34:16.231Z,19.20
2022-11-22T23:36:44.184Z,19.20
2022-11-22T23:39:13.471Z,19.10
2022-11-22T23:41:41.348Z,19.20
2022-11-22T23:44:09.648Z,19.10
2022-11-22T23:46:37.744Z,19.10
2022-11-22T23:49:06.294Z,19.10
2022-11-22T23:51:34.968Z,19.10
